• Join FlightAware (Why Join?)
  • Login
  • US Flag 
07:09AM EDT


 

Airport Tracker/Info


-or-


 

Live Flight TrackerFlight Track Log ✈ LBQ792 ✈ 06-May-2013 ✈ KAGC - KIAD

Flight Track Log - Related Links

Times and Time Zones

All times are in EDT time to prevent confusion due to time zone crossing. See the LBQ792 flight status page for this flight to view local times or setup timezone preferences in your user account.

Time Position Orientation Groundspeed Altitude Reporting Facility
EDT Latitude Longitude Course Direction KTS MPH feet Rate Location/Type
12:57AM 39.7889 -78.9858 172° South 246 283 15,000  Level Washington Center
12:58AM 39.7511 -78.9192 126° Southeast 246 283 15,000  Level Washington Center
12:59AM 39.7175 -78.8503 122° Southeast 246 283 15,000  Level Washington Center
01:00AM 39.6797 -78.7867 128° Southeast 241 277 15,000  Level Washington Center
01:01AM 39.6439 -78.7203 125° Southeast 235 270 15,000 -480 Level Washington Center
01:02AM 40.2949 -79.9189 172° South  Level FlightAware Approximate
01:02AM 39.6042 -78.6458 125° Southeast 230 265 14,100  Level Washington Center
01:03AM 39.5642 -78.5742 126° Southeast 240 276 13,200 -1,140 Descending Washington Center
01:04AM 39.5225 -78.4972 125° Southeast 250 288 11,900 -1,380 Descending Washington Center
01:05AM 39.4803 -78.4228 126° Southeast 255 293 10,500 -1,440 Descending Washington Center
01:06AM 39.4425 -78.3489 123° Southeast 255 293 9,100 -780 Descending Washington Center
01:07AM 39.4064 -78.2856 126° Southeast 244 281 9,000 -180 Descending Washington Center
01:08AM 39.3703 -78.2200 125° Southeast 233 268 8,800 -540 Descending Washington Center
01:09AM 39.3322 -78.1514 126° Southeast 228 262 8,000 -840 Descending Washington Center
01:10AM 39.2961 -78.0858 125° Southeast 228 262 7,200 -840 Descending Washington Center
01:11AM 39.2578 -78.0200 127° Southeast 228 262 6,400 -900 Descending Washington Center
01:12AM 39.2197 -77.9492 125° Southeast 228 262 5,500 -720 Descending Washington Center
01:13AM 39.1833 -77.8836 126° Southeast 228 262 5,000 -300 Descending Washington Center
01:14AM 39.1469 -77.8236 128° Southeast 228 262 5,000 -240 Level Washington Center
01:16AM 39.0333 -77.7667 159° South 229 264 4,400 -360 Descending Potomac TRACON
01:17AM 38.9667 -77.7500 169° South 224 258 4,000 -240 Descending Potomac TRACON
01:18AM 38.9167 -77.7333 165° South 205 236 4,000  Level Potomac TRACON
01:19AM 38.8667 -77.7167 165° South 197 227 4,000  Level Potomac TRACON
01:20AM 38.8167 -77.7000 165° South 190 219 4,000 -420 Level Potomac TRACON
01:21AM 38.7667 -77.6667 153° Southeast 209 241 3,300 -540 Descending Potomac TRACON
01:22AM 38.7333 -77.6167 131° Southeast 206 237 3,000 -180 Descending Potomac TRACON
01:23AM 38.7167 -77.5500 108° East 193 222 3,000  Level Potomac TRACON
01:24AM 38.7333 -77.4833 72° East 198 228 3,000  Level Potomac TRACON
01:25AM 38.7833 -77.4667 15° North 203 234 3,000 -420 Level Potomac TRACON
01:26AM 38.8333 -77.4667 360° North 202 232 2,300 -900 Descending Potomac TRACON
01:27AM 38.8833 -77.4667 360° North 170 196 1,400 -780 Descending Potomac TRACON
01:28AM 38.9167 -77.4667 360° North 105 121 800 -600 Descending Potomac TRACON